Airfield :
LOGIN :

Register | Disclaimer

   EN    FR    IT 

 










Legend :    VFR   Marginal VFR   IFR   Intensive IFR   Very Intensive IFR
Visi :
Ceiling :
>= 8 km
>= 3000ft
5 to 8 km
1000 to 3000 ft
1500m to 5 km
500 to 1000 ft
800 to 1500m
200 to 500 ft
< 800m
< 200 ft
Symbols :   Thunderstorms  Fog  Heavy snow  Heavy precipitations  Wind > 20 kt
SIGMETs :     Misc.  Thunderstorms  Icing  Turbulence  Mountain Waves  Volcanic Ashes






- Airport Elevation : 74 ft
- IATA code : EIN


EHEH - Eindhoven

CURRENT METAR :
  • 270325Z AUTO 35004KT 310V020 0450 FG OVC000 03/03 Q1039 RED

EXPIRED METARs :
  • 270255Z AUTO 35004KT 300V010 0400 FG OVC000 03/03 Q1039 RED
  • 270225Z AUTO 34003KT 310V040 0500 FG OVC000 03/03 Q1039 RED
  • 270155Z AUTO 35002KT 0250 FG OVC000 03/03 Q1039 RED
  • 270125Z AUTO 34003KT 310V030 0300 FG OVC000 02/02 Q1039 RED
  • 270106Z AUTO 34003KT 320V020 0600 FG OVC000 02/01 Q1039 RED
  • 270103Z AUTO 34003KT 1100 BR OVC001 01/01 Q1039 RED
  • 270055Z AUTO 34002KT 6000 BR OVC001 01/01 Q1039 RED

TAF TAF EHEH
Valid from the 27 at 00:00 until the 28 at 06:00 UTC


262358Z 2700/2806 VRB02KT 9000 NSC
BECMG 2700/2702 1500 BR MIFG
BECMG 2701/2703 0300 FG OVC001
BECMG 2707/2709 3000 BR SCT002 BKN004
BECMG 2709/2711 7000 NSW SCT004 BKN008
BECMG 2711/2713 FEW015 SCT020
BECMG 2721/2723 2000 BR BCFG
BECMG 2800/2802 0300 FG OVC001



MET'MAP, your aeronautical weather chart ! - Copyright ORBIFLY December 2007 - Disclaimer

ORBIFLY MET'MAP TEAM :

Programming & Development : Alexandra Zaïnal
Concept & original design : Baudouin d'Aumeries
Assistance for programming : Marc-Olivier Méhu
Technical & hardware support : Manuel Goepfert

Contact : metmap@orbifly.com




SOURCES & CREDITS :

   NOAA